sensor_id;sensor_type;location;lat;lon;timestamp;P1;durP1;ratioP1;P2;durP2;ratioP2
791;SDS011;379;49.022;12.148;2022-07-19T00:01:09;3.07;;;2.50;;
791;SDS011;379;49.022;12.148;2022-07-19T00:03:36;2.90;;;1.80;;
791;SDS011;379;49.022;12.148;2022-07-19T00:06:04;5.00;;;2.87;;
791;SDS011;379;49.022;12.148;2022-07-19T00:08:31;3.27;;;2.57;;
791;SDS011;379;49.022;12.148;2022-07-19T00:10:57;4.63;;;2.77;;
791;SDS011;379;49.022;12.148;2022-07-19T00:13:24;2.80;;;2.23;;
791;SDS011;379;49.022;12.148;2022-07-19T00:15:51;2.57;;;2.20;;
791;SDS011;379;49.022;12.148;2022-07-19T00:18:18;2.70;;;2.50;;
791;SDS011;379;49.022;12.148;2022-07-19T00:20:45;2.67;;;2.47;;
791;SDS011;379;49.022;12.148;2022-07-19T00:23:13;2.40;;;1.83;;
791;SDS011;379;49.022;12.148;2022-07-19T00:25:39;2.53;;;1.90;;
791;SDS011;379;49.022;12.148;2022-07-19T00:28:06;2.30;;;2.00;;
791;SDS011;379;49.022;12.148;2022-07-19T00:30:33;3.70;;;2.40;;
791;SDS011;379;49.022;12.148;2022-07-19T00:33:00;2.47;;;1.97;;
791;SDS011;379;49.022;12.148;2022-07-19T00:35:29;3.20;;;2.00;;
791;SDS011;379;49.022;12.148;2022-07-19T00:37:56;2.57;;;2.30;;
791;SDS011;379;49.022;12.148;2022-07-19T00:40:24;2.43;;;2.20;;
791;SDS011;379;49.022;12.148;2022-07-19T00:42:51;2.20;;;2.10;;
791;SDS011;379;49.022;12.148;2022-07-19T00:45:20;2.43;;;1.97;;
791;SDS011;379;49.022;12.148;2022-07-19T00:47:46;2.70;;;2.50;;
791;SDS011;379;49.022;12.148;2022-07-19T00:50:13;3.03;;;2.83;;
791;SDS011;379;49.022;12.148;2022-07-19T00:52:40;2.53;;;2.30;;
791;SDS011;379;49.022;12.148;2022-07-19T00:55:11;3.27;;;2.27;;
791;SDS011;379;49.022;12.148;2022-07-19T00:57:40;2.50;;;2.30;;
791;SDS011;379;49.022;12.148;2022-07-19T01:00:07;3.10;;;2.70;;
791;SDS011;379;49.022;12.148;2022-07-19T01:02:35;4.57;;;2.87;;
791;SDS011;379;49.022;12.148;2022-07-19T01:05:03;4.83;;;2.40;;
791;SDS011;379;49.022;12.148;2022-07-19T01:07:31;2.50;;;2.20;;
791;SDS011;379;49.022;12.148;2022-07-19T01:09:59;4.70;;;2.50;;
791;SDS011;379;49.022;12.148;2022-07-19T01:12:26;2.70;;;2.30;;
791;SDS011;379;49.022;12.148;2022-07-19T01:14:56;2.30;;;2.10;;
791;SDS011;379;49.022;12.148;2022-07-19T01:17:23;3.30;;;2.23;;
791;SDS011;379;49.022;12.148;2022-07-19T01:19:51;3.50;;;2.47;;
791;SDS011;379;49.022;12.148;2022-07-19T01:22:19;4.50;;;2.27;;
791;SDS011;379;49.022;12.148;2022-07-19T01:24:47;2.10;;;2.00;;
791;SDS011;379;49.022;12.148;2022-07-19T01:27:14;6.73;;;3.73;;
791;SDS011;379;49.022;12.148;2022-07-19T01:29:41;2.67;;;2.17;;
791;SDS011;379;49.022;12.148;2022-07-19T01:32:07;3.00;;;2.50;;
791;SDS011;379;49.022;12.148;2022-07-19T01:34:34;3.73;;;2.10;;
791;SDS011;379;49.022;12.148;2022-07-19T01:37:01;2.30;;;2.07;;
791;SDS011;379;49.022;12.148;2022-07-19T01:39:29;2.53;;;2.33;;
791;SDS011;379;49.022;12.148;2022-07-19T01:41:56;3.27;;;2.50;;
791;SDS011;379;49.022;12.148;2022-07-19T01:44:23;1.97;;;1.77;;
791;SDS011;379;49.022;12.148;2022-07-19T01:46:49;2.23;;;2.03;;
791;SDS011;379;49.022;12.148;2022-07-19T01:49:16;2.30;;;2.10;;
791;SDS011;379;49.022;12.148;2022-07-19T01:51:43;2.30;;;2.10;;
791;SDS011;379;49.022;12.148;2022-07-19T01:54:09;3.03;;;2.20;;
791;SDS011;379;49.022;12.148;2022-07-19T01:56:38;2.30;;;2.10;;
791;SDS011;379;49.022;12.148;2022-07-19T01:59:07;3.37;;;2.33;;
791;SDS011;379;49.022;12.148;2022-07-19T02:01:34;2.60;;;2.40;;
791;SDS011;379;49.022;12.148;2022-07-19T02:04:01;2.50;;;2.30;;
791;SDS011;379;49.022;12.148;2022-07-19T02:06:28;2.33;;;2.13;;
791;SDS011;379;49.022;12.148;2022-07-19T02:08:54;2.80;;;2.40;;
791;SDS011;379;49.022;12.148;2022-07-19T02:11:21;2.17;;;2.07;;
791;SDS011;379;49.022;12.148;2022-07-19T02:14:05;3.03;;;2.70;;
791;SDS011;379;49.022;12.148;2022-07-19T02:16:33;2.73;;;2.50;;
791;SDS011;379;49.022;12.148;2022-07-19T02:19:00;2.73;;;2.50;;
791;SDS011;379;49.022;12.148;2022-07-19T02:21:27;2.90;;;2.70;;
791;SDS011;379;49.022;12.148;2022-07-19T02:23:54;2.10;;;1.90;;
791;SDS011;379;49.022;12.148;2022-07-19T02:26:21;1.97;;;1.77;;
791;SDS011;379;49.022;12.148;2022-07-19T02:28:48;3.20;;;2.90;;
791;SDS011;379;49.022;12.148;2022-07-19T02:31:16;3.40;;;3.10;;
791;SDS011;379;49.022;12.148;2022-07-19T02:33:42;3.50;;;2.90;;
791;SDS011;379;49.022;12.148;2022-07-19T02:36:09;2.30;;;2.20;;
791;SDS011;379;49.022;12.148;2022-07-19T02:38:36;2.93;;;2.73;;
791;SDS011;379;49.022;12.148;2022-07-19T02:41:03;3.60;;;2.27;;
791;SDS011;379;49.022;12.148;2022-07-19T02:43:31;2.33;;;2.13;;
791;SDS011;379;49.022;12.148;2022-07-19T02:45:58;2.57;;;2.23;;
791;SDS011;379;49.022;12.148;2022-07-19T02:48:26;4.43;;;2.70;;
791;SDS011;379;49.022;12.148;2022-07-19T02:50:53;3.27;;;2.97;;
791;SDS011;379;49.022;12.148;2022-07-19T02:53:19;5.00;;;3.17;;
791;SDS011;379;49.022;12.148;2022-07-19T02:55:46;4.33;;;3.50;;
791;SDS011;379;49.022;12.148;2022-07-19T02:58:13;6.67;;;3.43;;
791;SDS011;379;49.022;12.148;2022-07-19T03:00:40;4.23;;;3.50;;
791;SDS011;379;49.022;12.148;2022-07-19T03:03:07;4.20;;;3.80;;
791;SDS011;379;49.022;12.148;2022-07-19T03:05:52;3.03;;;2.83;;
791;SDS011;379;49.022;12.148;2022-07-19T03:08:19;3.40;;;3.10;;
791;SDS011;379;49.022;12.148;2022-07-19T03:10:46;3.83;;;3.53;;
791;SDS011;379;49.022;12.148;2022-07-19T03:13:13;3.30;;;3.00;;
791;SDS011;379;49.022;12.148;2022-07-19T03:15:40;3.53;;;3.23;;
791;SDS011;379;49.022;12.148;2022-07-19T03:18:06;6.13;;;3.43;;
791;SDS011;379;49.022;12.148;2022-07-19T03:20:33;3.40;;;3.10;;
791;SDS011;379;49.022;12.148;2022-07-19T03:23:02;3.97;;;3.67;;
791;SDS011;379;49.022;12.148;2022-07-19T03:25:28;6.33;;;3.90;;
791;SDS011;379;49.022;12.148;2022-07-19T03:27:55;6.23;;;3.80;;
791;SDS011;379;49.022;12.148;2022-07-19T03:30:22;7.80;;;4.53;;
791;SDS011;379;49.022;12.148;2022-07-19T03:32:49;4.77;;;3.40;;
791;SDS011;379;49.022;12.148;2022-07-19T03:35:16;3.67;;;3.37;;
791;SDS011;379;49.022;12.148;2022-07-19T03:37:42;3.33;;;3.03;;
791;SDS011;379;49.022;12.148;2022-07-19T03:40:11;4.73;;;3.50;;
791;SDS011;379;49.022;12.148;2022-07-19T03:42:38;3.97;;;3.37;;
791;SDS011;379;49.022;12.148;2022-07-19T03:45:05;3.87;;;3.57;;
791;SDS011;379;49.022;12.148;2022-07-19T03:47:32;3.77;;;3.37;;
791;SDS011;379;49.022;12.148;2022-07-19T03:49:59;4.30;;;3.03;;
791;SDS011;379;49.022;12.148;2022-07-19T03:52:26;4.73;;;3.63;;
791;SDS011;379;49.022;12.148;2022-07-19T03:54:52;3.27;;;2.97;;
791;SDS011;379;49.022;12.148;2022-07-19T03:57:21;3.23;;;3.03;;
791;SDS011;379;49.022;12.148;2022-07-19T03:59:47;6.60;;;3.23;;
791;SDS011;379;49.022;12.148;2022-07-19T04:02:14;4.87;;;3.40;;
791;SDS011;379;49.022;12.148;2022-07-19T04:04:41;6.87;;;3.40;;
791;SDS011;379;49.022;12.148;2022-07-19T04:07:08;3.67;;;3.33;;
791;SDS011;379;49.022;12.148;2022-07-19T04:09:35;8.73;;;3.83;;
791;SDS011;379;49.022;12.148;2022-07-19T04:12:01;6.83;;;3.77;;
791;SDS011;379;49.022;12.148;2022-07-19T04:14:30;4.50;;;3.23;;
791;SDS011;379;49.022;12.148;2022-07-19T04:16:56;3.90;;;3.50;;
791;SDS011;379;49.022;12.148;2022-07-19T04:19:23;7.20;;;4.20;;
791;SDS011;379;49.022;12.148;2022-07-19T04:21:50;11.73;;;4.53;;
791;SDS011;379;49.022;12.148;2022-07-19T04:24:17;19.90;;;4.30;;
791;SDS011;379;49.022;12.148;2022-07-19T04:26:44;19.90;;;5.07;;
791;SDS011;379;49.022;12.148;2022-07-19T04:29:10;22.70;;;5.57;;
791;SDS011;379;49.022;12.148;2022-07-19T04:31:38;28.43;;;5.30;;
791;SDS011;379;49.022;12.148;2022-07-19T04:34:05;20.43;;;5.03;;
791;SDS011;379;49.022;12.148;2022-07-19T04:36:32;45.33;;;8.10;;
791;SDS011;379;49.022;12.148;2022-07-19T04:38:59;15.80;;;5.40;;
791;SDS011;379;49.022;12.148;2022-07-19T04:41:26;29.50;;;6.53;;
791;SDS011;379;49.022;12.148;2022-07-19T04:43:53;19.13;;;4.47;;
791;SDS011;379;49.022;12.148;2022-07-19T04:46:20;23.00;;;4.10;;
791;SDS011;379;49.022;12.148;2022-07-19T04:48:48;17.93;;;3.53;;
791;SDS011;379;49.022;12.148;2022-07-19T04:51:15;25.70;;;4.43;;
791;SDS011;379;49.022;12.148;2022-07-19T04:53:41;19.93;;;4.03;;
791;SDS011;379;49.022;12.148;2022-07-19T04:56:08;17.00;;;4.70;;
791;SDS011;379;49.022;12.148;2022-07-19T04:58:35;12.90;;;3.17;;
791;SDS011;379;49.022;12.148;2022-07-19T05:01:02;20.43;;;3.60;;
791;SDS011;379;49.022;12.148;2022-07-19T05:03:29;14.30;;;4.80;;
791;SDS011;379;49.022;12.148;2022-07-19T05:05:57;40.70;;;7.40;;
791;SDS011;379;49.022;12.148;2022-07-19T05:08:23;17.60;;;3.80;;
791;SDS011;379;49.022;12.148;2022-07-19T05:10:50;11.00;;;3.17;;
791;SDS011;379;49.022;12.148;2022-07-19T05:13:17;11.70;;;4.10;;
791;SDS011;379;49.022;12.148;2022-07-19T05:15:44;3.77;;;2.70;;
791;SDS011;379;49.022;12.148;2022-07-19T05:18:11;8.27;;;3.03;;
791;SDS011;379;49.022;12.148;2022-07-19T05:20:37;10.73;;;4.07;;
791;SDS011;379;49.022;12.148;2022-07-19T05:23:05;10.90;;;3.50;;
791;SDS011;379;49.022;12.148;2022-07-19T05:25:32;13.73;;;4.13;;
791;SDS011;379;49.022;12.148;2022-07-19T05:27:59;19.73;;;4.47;;
791;SDS011;379;49.022;12.148;2022-07-19T05:30:26;11.37;;;3.50;;
791;SDS011;379;49.022;12.148;2022-07-19T05:32:52;13.77;;;4.20;;
791;SDS011;379;49.022;12.148;2022-07-19T05:35:19;22.03;;;4.10;;
791;SDS011;379;49.022;12.148;2022-07-19T05:37:46;16.33;;;3.60;;
791;SDS011;379;49.022;12.148;2022-07-19T05:40:14;15.67;;;3.40;;
791;SDS011;379;49.022;12.148;2022-07-19T05:42:41;8.90;;;3.03;;
791;SDS011;379;49.022;12.148;2022-07-19T05:45:08;8.67;;;2.93;;
791;SDS011;379;49.022;12.148;2022-07-19T05:47:36;5.13;;;2.40;;
791;SDS011;379;49.022;12.148;2022-07-19T05:50:03;4.70;;;2.43;;
791;SDS011;379;49.022;12.148;2022-07-19T05:52:31;7.40;;;2.70;;
791;SDS011;379;49.022;12.148;2022-07-19T05:54:57;4.67;;;2.03;;
791;SDS011;379;49.022;12.148;2022-07-19T05:57:26;4.83;;;3.23;;
791;SDS011;379;49.022;12.148;2022-07-19T05:59:52;4.57;;;2.60;;
791;SDS011;379;49.022;12.148;2022-07-19T06:02:19;4.70;;;2.37;;
791;SDS011;379;49.022;12.148;2022-07-19T06:04:46;4.63;;;2.90;;
791;SDS011;379;49.022;12.148;2022-07-19T06:07:13;6.70;;;2.53;;
791;SDS011;379;49.022;12.148;2022-07-19T06:09:40;4.35;;;2.25;;
791;SDS011;379;49.022;12.148;2022-07-19T06:12:07;3.92;;;2.35;;
791;SDS011;379;49.022;12.148;2022-07-19T06:14:35;4.60;;;2.83;;
791;SDS011;379;49.022;12.148;2022-07-19T06:17:02;5.05;;;2.50;;
791;SDS011;379;49.022;12.148;2022-07-19T06:19:28;2.67;;;2.10;;
791;SDS011;379;49.022;12.148;2022-07-19T06:21:55;2.35;;;2.13;;
791;SDS011;379;49.022;12.148;2022-07-19T06:24:22;2.70;;;2.28;;
791;SDS011;379;49.022;12.148;2022-07-19T06:26:49;3.75;;;2.33;;
791;SDS011;379;49.022;12.148;2022-07-19T06:29:15;3.15;;;2.53;;
791;SDS011;379;49.022;12.148;2022-07-19T06:31:43;2.92;;;2.40;;
791;SDS011;379;49.022;12.148;2022-07-19T06:34:10;2.80;;;1.90;;
791;SDS011;379;49.022;12.148;2022-07-19T06:36:37;2.97;;;1.70;;
791;SDS011;379;49.022;12.148;2022-07-19T06:39:04;2.17;;;1.50;;
791;SDS011;379;49.022;12.148;2022-07-19T06:41:31;4.70;;;2.42;;
791;SDS011;379;49.022;12.148;2022-07-19T06:43:58;3.70;;;2.40;;
791;SDS011;379;49.022;12.148;2022-07-19T06:46:24;5.30;;;2.65;;
791;SDS011;379;49.022;12.148;2022-07-19T06:48:53;4.53;;;1.98;;
791;SDS011;379;49.022;12.148;2022-07-19T06:51:19;2.20;;;1.83;;
791;SDS011;379;49.022;12.148;2022-07-19T06:53:46;4.30;;;2.17;;
791;SDS011;379;49.022;12.148;2022-07-19T06:56:14;2.13;;;1.92;;
791;SDS011;379;49.022;12.148;2022-07-19T06:58:41;2.80;;;2.00;;
791;SDS011;379;49.022;12.148;2022-07-19T07:01:08;2.58;;;2.00;;
791;SDS011;379;49.022;12.148;2022-07-19T07:03:35;2.35;;;2.10;;
791;SDS011;379;49.022;12.148;2022-07-19T07:06:03;1.58;;;1.40;;
791;SDS011;379;49.022;12.148;2022-07-19T07:08:31;2.38;;;1.60;;
791;SDS011;379;49.022;12.148;2022-07-19T07:10:58;1.92;;;1.73;;
791;SDS011;379;49.022;12.148;2022-07-19T07:13:25;2.28;;;2.08;;
791;SDS011;379;49.022;12.148;2022-07-19T07:15:52;1.83;;;1.58;;
791;SDS011;379;49.022;12.148;2022-07-19T07:18:19;3.08;;;2.05;;
791;SDS011;379;49.022;12.148;2022-07-19T07:20:45;5.32;;;2.00;;
791;SDS011;379;49.022;12.148;2022-07-19T07:23:13;2.30;;;1.80;;
791;SDS011;379;49.022;12.148;2022-07-19T07:25:40;2.85;;;1.70;;
791;SDS011;379;49.022;12.148;2022-07-19T07:28:07;2.22;;;1.80;;
791;SDS011;379;49.022;12.148;2022-07-19T07:30:34;3.67;;;1.67;;
791;SDS011;379;49.022;12.148;2022-07-19T07:33:01;3.88;;;1.58;;
791;SDS011;379;49.022;12.148;2022-07-19T07:35:27;6.05;;;1.88;;
791;SDS011;379;49.022;12.148;2022-07-19T07:37:54;2.47;;;2.10;;
791;SDS011;379;49.022;12.148;2022-07-19T07:40:22;2.75;;;1.63;;
791;SDS011;379;49.022;12.148;2022-07-19T07:42:49;1.88;;;1.55;;
791;SDS011;379;49.022;12.148;2022-07-19T07:45:16;2.63;;;2.03;;
791;SDS011;379;49.022;12.148;2022-07-19T07:47:42;4.15;;;1.80;;
791;SDS011;379;49.022;12.148;2022-07-19T07:50:10;2.72;;;1.75;;
791;SDS011;379;49.022;12.148;2022-07-19T07:52:37;2.80;;;1.60;;
791;SDS011;379;49.022;12.148;2022-07-19T07:55:04;5.53;;;2.20;;
791;SDS011;379;49.022;12.148;2022-07-19T07:57:32;4.57;;;2.30;;
791;SDS011;379;49.022;12.148;2022-07-19T07:59:59;3.05;;;1.52;;
791;SDS011;379;49.022;12.148;2022-07-19T08:02:26;4.57;;;1.80;;
791;SDS011;379;49.022;12.148;2022-07-19T08:04:53;2.70;;;2.30;;
791;SDS011;379;49.022;12.148;2022-07-19T08:07:19;3.50;;;2.00;;
791;SDS011;379;49.022;12.148;2022-07-19T08:09:46;2.08;;;1.80;;
791;SDS011;379;49.022;12.148;2022-07-19T08:12:13;1.38;;;1.27;;
791;SDS011;379;49.022;12.148;2022-07-19T08:14:41;1.92;;;1.42;;
791;SDS011;379;49.022;12.148;2022-07-19T08:17:08;3.25;;;1.92;;
791;SDS011;379;49.022;12.148;2022-07-19T08:19:35;2.78;;;1.98;;
791;SDS011;379;49.022;12.148;2022-07-19T08:22:01;1.70;;;1.55;;
791;SDS011;379;49.022;12.148;2022-07-19T08:24:28;3.45;;;1.90;;
791;SDS011;379;49.022;12.148;2022-07-19T08:26:55;2.15;;;1.70;;
791;SDS011;379;49.022;12.148;2022-07-19T08:29:22;1.70;;;1.48;;
791;SDS011;379;49.022;12.148;2022-07-19T08:31:50;2.07;;;1.73;;
791;SDS011;379;49.022;12.148;2022-07-19T08:34:17;4.53;;;1.80;;
791;SDS011;379;49.022;12.148;2022-07-19T08:36:43;3.10;;;2.13;;
791;SDS011;379;49.022;12.148;2022-07-19T08:39:10;6.43;;;2.40;;
791;SDS011;379;49.022;12.148;2022-07-19T08:41:37;2.37;;;1.80;;
791;SDS011;379;49.022;12.148;2022-07-19T08:44:04;3.37;;;1.93;;
791;SDS011;379;49.022;12.148;2022-07-19T08:46:31;2.60;;;2.10;;
791;SDS011;379;49.022;12.148;2022-07-19T08:48:59;3.70;;;1.50;;
791;SDS011;379;49.022;12.148;2022-07-19T08:51:27;3.13;;;1.73;;
791;SDS011;379;49.022;12.148;2022-07-19T08:53:54;4.47;;;1.80;;
791;SDS011;379;49.022;12.148;2022-07-19T08:56:22;2.00;;;1.60;;
791;SDS011;379;49.022;12.148;2022-07-19T08:59:06;3.10;;;1.63;;
791;SDS011;379;49.022;12.148;2022-07-19T09:01:33;2.40;;;1.77;;
791;SDS011;379;49.022;12.148;2022-07-19T09:04:05;4.70;;;1.90;;
791;SDS011;379;49.022;12.148;2022-07-19T09:06:38;2.97;;;1.80;;
791;SDS011;379;49.022;12.148;2022-07-19T09:09:06;2.50;;;1.70;;
791;SDS011;379;49.022;12.148;2022-07-19T09:11:33;3.87;;;1.57;;
791;SDS011;379;49.022;12.148;2022-07-19T09:14:04;3.83;;;2.10;;
791;SDS011;379;49.022;12.148;2022-07-19T09:16:53;2.80;;;1.87;;
791;SDS011;379;49.022;12.148;2022-07-19T09:19:23;2.87;;;1.73;;
791;SDS011;379;49.022;12.148;2022-07-19T09:21:52;5.10;;;2.10;;
791;SDS011;379;49.022;12.148;2022-07-19T09:24:20;5.33;;;2.00;;
791;SDS011;379;49.022;12.148;2022-07-19T09:26:58;3.17;;;1.97;;
791;SDS011;379;49.022;12.148;2022-07-19T09:29:27;2.20;;;2.10;;
791;SDS011;379;49.022;12.148;2022-07-19T09:32:02;1.63;;;1.50;;
791;SDS011;379;49.022;12.148;2022-07-19T09:34:33;1.73;;;1.60;;
791;SDS011;379;49.022;12.148;2022-07-19T09:37:08;3.00;;;1.80;;
791;SDS011;379;49.022;12.148;2022-07-19T09:39:36;5.17;;;2.13;;
791;SDS011;379;49.022;12.148;2022-07-19T09:42:04;2.57;;;1.60;;
791;SDS011;379;49.022;12.148;2022-07-19T09:44:31;1.57;;;1.47;;
791;SDS011;379;49.022;12.148;2022-07-19T09:46:58;2.40;;;2.10;;
791;SDS011;379;49.022;12.148;2022-07-19T09:49:24;2.17;;;1.67;;
791;SDS011;379;49.022;12.148;2022-07-19T09:51:53;3.23;;;2.20;;
791;SDS011;379;49.022;12.148;2022-07-19T09:54:21;2.37;;;2.17;;
791;SDS011;379;49.022;12.148;2022-07-19T09:56:50;5.40;;;1.77;;
791;SDS011;379;49.022;12.148;2022-07-19T09:59:17;2.53;;;1.73;;
791;SDS011;379;49.022;12.148;2022-07-19T10:01:46;4.53;;;1.80;;
791;SDS011;379;49.022;12.148;2022-07-19T10:04:15;2.93;;;1.87;;
791;SDS011;379;49.022;12.148;2022-07-19T10:06:44;2.87;;;2.57;;
791;SDS011;379;49.022;12.148;2022-07-19T10:09:13;3.13;;;2.50;;
791;SDS011;379;49.022;12.148;2022-07-19T10:11:41;4.43;;;3.90;;
791;SDS011;379;49.022;12.148;2022-07-19T10:14:08;1.87;;;1.67;;
791;SDS011;379;49.022;12.148;2022-07-19T10:16:39;1.97;;;1.80;;
791;SDS011;379;49.022;12.148;2022-07-19T10:19:15;2.40;;;1.40;;
791;SDS011;379;49.022;12.148;2022-07-19T10:21:48;2.87;;;1.80;;
791;SDS011;379;49.022;12.148;2022-07-19T10:27:09;2.30;;;1.60;;
791;SDS011;379;49.022;12.148;2022-07-19T10:29:37;2.60;;;1.47;;
791;SDS011;379;49.022;12.148;2022-07-19T10:32:04;2.30;;;2.03;;
791;SDS011;379;49.022;12.148;2022-07-19T10:34:33;1.70;;;1.60;;
791;SDS011;379;49.022;12.148;2022-07-19T10:37:00;3.00;;;1.80;;
791;SDS011;379;49.022;12.148;2022-07-19T10:39:28;2.17;;;1.87;;
791;SDS011;379;49.022;12.148;2022-07-19T10:42:08;3.40;;;1.80;;
791;SDS011;379;49.022;12.148;2022-07-19T10:50:41;2.30;;;1.87;;
791;SDS011;379;49.022;12.148;2022-07-19T10:53:09;2.63;;;1.93;;
791;SDS011;379;49.022;12.148;2022-07-19T10:55:36;2.30;;;2.10;;
791;SDS011;379;49.022;12.148;2022-07-19T10:58:10;4.57;;;2.10;;
791;SDS011;379;49.022;12.148;2022-07-19T11:00:41;2.50;;;1.63;;
791;SDS011;379;49.022;12.148;2022-07-19T11:03:28;3.70;;;3.30;;
791;SDS011;379;49.022;12.148;2022-07-19T11:05:56;2.90;;;1.83;;
791;SDS011;379;49.022;12.148;2022-07-19T11:08:30;3.07;;;1.70;;
791;SDS011;379;49.022;12.148;2022-07-19T11:11:03;1.97;;;1.70;;
791;SDS011;379;49.022;12.148;2022-07-19T11:13:32;2.87;;;1.53;;
791;SDS011;379;49.022;12.148;2022-07-19T11:16:00;2.60;;;2.40;;
791;SDS011;379;49.022;12.148;2022-07-19T11:18:28;3.00;;;1.87;;
791;SDS011;379;49.022;12.148;2022-07-19T11:20:56;3.27;;;2.00;;
791;SDS011;379;49.022;12.148;2022-07-19T11:23:23;3.77;;;2.37;;
791;SDS011;379;49.022;12.148;2022-07-19T11:26:03;2.33;;;2.00;;
791;SDS011;379;49.022;12.148;2022-07-19T11:28:32;3.27;;;2.30;;
791;SDS011;379;49.022;12.148;2022-07-19T11:31:01;3.90;;;2.13;;
791;SDS011;379;49.022;12.148;2022-07-19T11:33:37;2.50;;;2.20;;
791;SDS011;379;49.022;12.148;2022-07-19T11:36:04;2.10;;;1.90;;
791;SDS011;379;49.022;12.148;2022-07-19T11:38:35;3.83;;;3.37;;
791;SDS011;379;49.022;12.148;2022-07-19T11:41:11;2.57;;;2.37;;
791;SDS011;379;49.022;12.148;2022-07-19T11:43:40;2.50;;;2.30;;
791;SDS011;379;49.022;12.148;2022-07-19T11:46:07;3.67;;;2.10;;
791;SDS011;379;49.022;12.148;2022-07-19T11:48:34;7.90;;;2.60;;
791;SDS011;379;49.022;12.148;2022-07-19T11:51:02;2.07;;;1.80;;
791;SDS011;379;49.022;12.148;2022-07-19T11:53:32;3.03;;;2.10;;
791;SDS011;379;49.022;12.148;2022-07-19T11:56:00;1.73;;;1.63;;
791;SDS011;379;49.022;12.148;2022-07-19T11:58:28;2.20;;;1.70;;
791;SDS011;379;49.022;12.148;2022-07-19T12:01:04;3.37;;;2.30;;
791;SDS011;379;49.022;12.148;2022-07-19T12:03:32;3.37;;;1.97;;
791;SDS011;379;49.022;12.148;2022-07-19T12:05:59;3.30;;;1.57;;
791;SDS011;379;49.022;12.148;2022-07-19T12:08:38;3.30;;;1.60;;
791;SDS011;379;49.022;12.148;2022-07-19T12:11:20;1.83;;;1.50;;
791;SDS011;379;49.022;12.148;2022-07-19T12:13:48;2.30;;;1.97;;
791;SDS011;379;49.022;12.148;2022-07-19T12:16:17;2.43;;;2.07;;
791;SDS011;379;49.022;12.148;2022-07-19T12:18:46;2.93;;;1.90;;
791;SDS011;379;49.022;12.148;2022-07-19T12:21:22;2.60;;;2.17;;
791;SDS011;379;49.022;12.148;2022-07-19T12:24:11;5.23;;;1.93;;
791;SDS011;379;49.022;12.148;2022-07-19T12:26:55;2.60;;;1.67;;
791;SDS011;379;49.022;12.148;2022-07-19T12:29:24;1.83;;;1.73;;
791;SDS011;379;49.022;12.148;2022-07-19T12:31:55;4.87;;;1.93;;
791;SDS011;379;49.022;12.148;2022-07-19T12:34:24;3.50;;;1.80;;
791;SDS011;379;49.022;12.148;2022-07-19T12:36:51;3.43;;;2.70;;
791;SDS011;379;49.022;12.148;2022-07-19T12:39:23;3.50;;;1.80;;
791;SDS011;379;49.022;12.148;2022-07-19T12:41:54;2.60;;;1.60;;
791;SDS011;379;49.022;12.148;2022-07-19T12:44:26;2.30;;;2.10;;
791;SDS011;379;49.022;12.148;2022-07-19T12:46:54;2.97;;;2.30;;
791;SDS011;379;49.022;12.148;2022-07-19T12:49:22;2.90;;;2.03;;
791;SDS011;379;49.022;12.148;2022-07-19T12:51:49;2.20;;;2.03;;
791;SDS011;379;49.022;12.148;2022-07-19T12:54:16;3.03;;;1.80;;
791;SDS011;379;49.022;12.148;2022-07-19T12:56:43;2.10;;;1.70;;
791;SDS011;379;49.022;12.148;2022-07-19T12:59:10;2.50;;;2.10;;
791;SDS011;379;49.022;12.148;2022-07-19T13:01:55;4.90;;;2.10;;
791;SDS011;379;49.022;12.148;2022-07-19T13:04:22;4.70;;;2.60;;
791;SDS011;379;49.022;12.148;2022-07-19T13:06:49;5.03;;;2.00;;
791;SDS011;379;49.022;12.148;2022-07-19T13:09:16;3.53;;;2.80;;
791;SDS011;379;49.022;12.148;2022-07-19T13:11:43;3.10;;;2.10;;
791;SDS011;379;49.022;12.148;2022-07-19T13:14:10;3.17;;;1.70;;
791;SDS011;379;49.022;12.148;2022-07-19T13:16:37;3.03;;;2.17;;
791;SDS011;379;49.022;12.148;2022-07-19T13:19:05;2.40;;;1.80;;
791;SDS011;379;49.022;12.148;2022-07-19T13:21:32;4.90;;;3.17;;
791;SDS011;379;49.022;12.148;2022-07-19T13:23:59;2.20;;;2.00;;
791;SDS011;379;49.022;12.148;2022-07-19T13:26:26;3.13;;;1.87;;
791;SDS011;379;49.022;12.148;2022-07-19T13:28:53;4.43;;;2.00;;
791;SDS011;379;49.022;12.148;2022-07-19T13:31:20;2.77;;;2.23;;
791;SDS011;379;49.022;12.148;2022-07-19T13:33:47;4.30;;;2.27;;
791;SDS011;379;49.022;12.148;2022-07-19T13:36:15;2.13;;;1.93;;
791;SDS011;379;49.022;12.148;2022-07-19T13:38:42;3.33;;;2.50;;
791;SDS011;379;49.022;12.148;2022-07-19T13:41:08;3.93;;;2.40;;
791;SDS011;379;49.022;12.148;2022-07-19T13:43:35;6.10;;;2.27;;
791;SDS011;379;49.022;12.148;2022-07-19T13:46:02;3.53;;;2.27;;
791;SDS011;379;49.022;12.148;2022-07-19T13:48:29;2.20;;;2.00;;
791;SDS011;379;49.022;12.148;2022-07-19T13:50:56;3.20;;;2.17;;
791;SDS011;379;49.022;12.148;2022-07-19T13:53:24;3.67;;;2.70;;
791;SDS011;379;49.022;12.148;2022-07-19T13:55:51;2.23;;;2.03;;
791;SDS011;379;49.022;12.148;2022-07-19T13:58:17;2.50;;;1.97;;
791;SDS011;379;49.022;12.148;2022-07-19T14:00:44;4.20;;;2.03;;
791;SDS011;379;49.022;12.148;2022-07-19T14:03:11;2.40;;;2.20;;
791;SDS011;379;49.022;12.148;2022-07-19T14:05:39;2.43;;;2.20;;
791;SDS011;379;49.022;12.148;2022-07-19T14:08:06;3.30;;;2.47;;
791;SDS011;379;49.022;12.148;2022-07-19T14:10:34;2.57;;;2.00;;
791;SDS011;379;49.022;12.148;2022-07-19T14:13:01;3.17;;;2.40;;
791;SDS011;379;49.022;12.148;2022-07-19T14:15:28;2.50;;;2.03;;
791;SDS011;379;49.022;12.148;2022-07-19T14:17:55;4.70;;;2.00;;
791;SDS011;379;49.022;12.148;2022-07-19T14:20:22;5.07;;;3.17;;
791;SDS011;379;49.022;12.148;2022-07-19T14:22:49;4.73;;;2.73;;
791;SDS011;379;49.022;12.148;2022-07-19T14:25:16;2.97;;;2.40;;
791;SDS011;379;49.022;12.148;2022-07-19T14:27:44;4.30;;;2.30;;
791;SDS011;379;49.022;12.148;2022-07-19T14:30:11;3.00;;;2.30;;
791;SDS011;379;49.022;12.148;2022-07-19T14:32:38;6.20;;;2.40;;
791;SDS011;379;49.022;12.148;2022-07-19T14:35:05;11.50;;;7.80;;
791;SDS011;379;49.022;12.148;2022-07-19T14:37:32;4.87;;;2.40;;
791;SDS011;379;49.022;12.148;2022-07-19T14:39:59;3.40;;;2.00;;
791;SDS011;379;49.022;12.148;2022-07-19T14:42:25;3.77;;;2.83;;
791;SDS011;379;49.022;12.148;2022-07-19T14:44:55;3.20;;;2.30;;
791;SDS011;379;49.022;12.148;2022-07-19T14:47:22;3.23;;;2.10;;
791;SDS011;379;49.022;12.148;2022-07-19T14:49:49;5.77;;;2.37;;
791;SDS011;379;49.022;12.148;2022-07-19T14:52:16;3.57;;;2.37;;
791;SDS011;379;49.022;12.148;2022-07-19T14:54:43;3.30;;;2.30;;
791;SDS011;379;49.022;12.148;2022-07-19T14:57:09;4.30;;;2.33;;
791;SDS011;379;49.022;12.148;2022-07-19T14:59:36;3.77;;;2.60;;
791;SDS011;379;49.022;12.148;2022-07-19T15:02:05;5.63;;;2.70;;
791;SDS011;379;49.022;12.148;2022-07-19T15:04:33;5.23;;;2.80;;
791;SDS011;379;49.022;12.148;2022-07-19T15:07:00;3.57;;;2.83;;
791;SDS011;379;49.022;12.148;2022-07-19T15:09:27;4.70;;;2.20;;
791;SDS011;379;49.022;12.148;2022-07-19T15:11:54;3.20;;;2.23;;
791;SDS011;379;49.022;12.148;2022-07-19T15:14:24;3.20;;;2.37;;
791;SDS011;379;49.022;12.148;2022-07-19T15:16:54;5.00;;;3.07;;
791;SDS011;379;49.022;12.148;2022-07-19T15:19:22;3.20;;;2.43;;
791;SDS011;379;49.022;12.148;2022-07-19T15:21:49;4.50;;;2.40;;
791;SDS011;379;49.022;12.148;2022-07-19T15:24:17;3.53;;;2.40;;
791;SDS011;379;49.022;12.148;2022-07-19T15:26:44;4.20;;;2.63;;
791;SDS011;379;49.022;12.148;2022-07-19T15:29:11;3.50;;;3.20;;
791;SDS011;379;49.022;12.148;2022-07-19T15:31:39;3.33;;;2.53;;
791;SDS011;379;49.022;12.148;2022-07-19T15:34:05;2.20;;;2.03;;
791;SDS011;379;49.022;12.148;2022-07-19T15:36:33;4.73;;;2.43;;
791;SDS011;379;49.022;12.148;2022-07-19T15:39:00;3.13;;;2.43;;
791;SDS011;379;49.022;12.148;2022-07-19T15:41:28;2.10;;;1.90;;
791;SDS011;379;49.022;12.148;2022-07-19T15:43:55;3.43;;;2.20;;